createdAt,value
2023-05-10T00:00:23.919Z,100089.28
2023-05-10T00:02:50.643Z,100092.50
2023-05-10T00:05:17.502Z,100087.53
2023-05-10T00:07:46.255Z,100082.88
2023-05-10T00:10:13.006Z,100080.63
2023-05-10T00:12:40.188Z,100079.97
2023-05-10T00:15:07.887Z,100074.72
2023-05-10T00:17:34.844Z,100070.03
2023-05-10T00:20:01.892Z,100073.53
2023-05-10T00:22:28.603Z,100074.00
2023-05-10T00:24:55.501Z,100075.91
2023-05-10T00:27:22.270Z,100073.00
2023-05-10T00:29:49.399Z,100071.59
2023-05-10T00:32:16.730Z,100072.28
2023-05-10T00:34:43.686Z,100070.19
2023-05-10T00:37:12.065Z,100067.97
2023-05-10T00:39:38.932Z,100065.22
2023-05-10T00:42:05.749Z,100061.84
2023-05-10T00:44:32.378Z,100067.16
2023-05-10T00:47:00.445Z,100062.19
2023-05-10T00:49:27.616Z,100063.94
2023-05-10T00:51:54.538Z,100064.59
2023-05-10T00:54:21.762Z,100066.03
2023-05-10T00:56:50.466Z,100059.16
2023-05-10T00:59:19.345Z,100059.47
2023-05-10T01:01:46.833Z,100051.59
2023-05-10T01:04:15.059Z,100056.72
2023-05-10T01:06:42.578Z,100060.22
2023-05-10T01:09:09.431Z,100055.03
2023-05-10T01:11:37.952Z,100054.06
2023-05-10T01:14:05.684Z,100053.88
2023-05-10T01:16:37.663Z,100048.41
2023-05-10T01:19:13.788Z,100051.63
2023-05-10T01:21:58.310Z,100044.75
2023-05-10T01:24:43.747Z,100050.94
2023-05-10T01:27:30.616Z,100044.19
2023-05-10T01:30:16.348Z,100050.09
2023-05-10T01:33:07.509Z,100041.28
2023-05-10T01:35:47.399Z,100048.53
2023-05-10T01:38:31.414Z,100042.47
2023-05-10T01:41:18.790Z,100037.81
2023-05-10T01:44:10.834Z,100044.38
2023-05-10T01:46:39.681Z,100033.81
2023-05-10T01:49:10.548Z,100043.88
2023-05-10T01:51:43.309Z,100035.84
2023-05-10T01:54:12.379Z,100041.59
2023-05-10T01:56:41.320Z,100032.81
2023-05-10T01:59:14.183Z,100039.06
2023-05-10T02:01:41.747Z,100030.56
2023-05-10T02:04:11.150Z,100030.38
2023-05-10T02:06:41.396Z,100035.00
2023-05-10T02:09:10.326Z,100035.19
2023-05-10T02:11:39.010Z,100034.50
2023-05-10T02:14:09.036Z,100035.31
2023-05-10T02:16:37.181Z,100035.00
2023-05-10T02:19:05.055Z,100034.66
2023-05-10T02:21:33.858Z,100030.03
2023-05-10T02:24:04.574Z,100030.03
2023-05-10T02:26:34.851Z,100028.41
2023-05-10T02:29:04.809Z,100027.44
2023-05-10T02:31:34.359Z,100029.88
2023-05-10T02:34:02.517Z,100025.09
2023-05-10T02:36:30.238Z,100027.97
2023-05-10T02:38:57.936Z,100017.75
2023-05-10T02:41:27.843Z,100026.84
2023-05-10T02:44:00.411Z,100027.84
2023-05-10T02:46:27.225Z,100030.56
2023-05-10T02:48:54.096Z,100026.53
2023-05-10T02:51:25.819Z,100026.84
2023-05-10T02:53:56.261Z,100024.59
2023-05-10T02:56:52.236Z,100029.34
2023-05-10T02:59:19.009Z,100022.13
2023-05-10T03:01:45.798Z,100023.50
2023-05-10T03:04:12.617Z,100022.09
2023-05-10T03:06:39.487Z,100021.25
2023-05-10T03:09:07.253Z,100026.31
2023-05-10T03:11:52.681Z,100027.00
2023-05-10T03:14:22.456Z,100023.97
2023-05-10T03:17:08.800Z,100033.19
2023-05-10T03:19:54.194Z,100033.72
2023-05-10T03:22:45.667Z,100040.63
2023-05-10T03:25:13.510Z,100036.63
2023-05-10T03:27:43.169Z,100038.22
2023-05-10T03:30:12.945Z,100031.84
2023-05-10T03:32:40.035Z,100036.00
2023-05-10T03:35:14.473Z,100025.00
2023-05-10T03:37:41.235Z,100032.78
2023-05-10T03:40:09.305Z,100028.16
2023-05-10T03:42:36.177Z,100031.81
2023-05-10T03:45:03.098Z,100030.06
2023-05-10T03:47:31.043Z,100025.19
2023-05-10T03:49:57.747Z,100027.25
2023-05-10T03:52:24.472Z,100028.06
2023-05-10T03:54:51.392Z,100022.00
2023-05-10T03:57:18.365Z,100027.44
2023-05-10T03:59:45.117Z,100025.69
2023-05-10T04:02:12.032Z,100032.41
2023-05-10T04:04:38.964Z,100031.78
2023-05-10T04:07:05.842Z,100026.41
2023-05-10T04:09:32.619Z,100030.03
2023-05-10T04:12:00.726Z,100022.50
2023-05-10T04:14:27.457Z,100025.41
2023-05-10T04:16:54.597Z,100028.97
2023-05-10T04:19:21.467Z,100031.38
2023-05-10T04:21:48.128Z,100033.81
2023-05-10T04:24:14.982Z,100028.88
2023-05-10T04:26:41.895Z,100026.00
2023-05-10T04:29:08.586Z,100033.19
2023-05-10T04:31:37.652Z,100027.63
2023-05-10T04:34:04.435Z,100034.69
2023-05-10T04:36:31.148Z,100028.34
2023-05-10T04:38:57.887Z,100032.34
2023-05-10T04:41:24.636Z,100032.50
2023-05-10T04:43:51.352Z,100030.91
2023-05-10T04:46:18.215Z,100022.44
2023-05-10T04:48:45.127Z,100028.69
2023-05-10T04:51:12.453Z,100031.56
2023-05-10T04:53:39.762Z,100027.06
2023-05-10T04:56:06.853Z,100031.41
2023-05-10T04:58:33.518Z,100032.84
2023-05-10T05:01:07.613Z,100031.06
2023-05-10T05:03:34.685Z,100027.72
2023-05-10T05:06:01.512Z,100028.31
2023-05-10T05:08:28.288Z,100028.16
2023-05-10T05:10:55.746Z,100029.09
2023-05-10T05:13:22.698Z,100026.69
2023-05-10T05:15:49.618Z,100020.59
2023-05-10T05:18:16.397Z,100029.09
2023-05-10T05:20:43.133Z,100025.88
2023-05-10T05:23:10.196Z,100033.06
2023-05-10T05:25:37.368Z,100025.00
2023-05-10T05:28:04.179Z,100017.94
2023-05-10T05:30:30.905Z,100021.13
2023-05-10T05:32:57.818Z,100025.44
2023-05-10T05:35:24.705Z,100018.19
2023-05-10T05:37:51.373Z,100029.75
2023-05-10T05:40:18.168Z,100028.16
2023-05-10T05:42:44.799Z,100035.16
2023-05-10T05:45:14.340Z,100026.63
2023-05-10T05:47:41.447Z,100025.63
2023-05-10T05:50:08.495Z,100024.16
2023-05-10T05:52:35.137Z,100029.63
2023-05-10T05:55:02.082Z,100024.91
2023-05-10T05:57:28.881Z,100023.69
2023-05-10T05:59:55.563Z,100037.53
2023-05-10T06:02:22.328Z,100036.78
2023-05-10T06:04:49.121Z,100039.03
2023-05-10T06:07:16.951Z,100035.56
2023-05-10T06:09:43.390Z,100042.97
2023-05-10T06:12:09.782Z,100047.22
2023-05-10T06:14:36.227Z,100044.41
2023-05-10T06:17:05.039Z,100046.41
2023-05-10T06:19:31.751Z,100045.22
2023-05-10T06:21:58.212Z,100046.47
2023-05-10T06:24:24.687Z,100043.22
2023-05-10T06:26:51.416Z,100052.38
2023-05-10T06:29:18.540Z,100055.44
2023-05-10T06:31:45.076Z,100054.22
2023-05-10T06:34:12.690Z,100053.56
2023-05-10T06:36:39.331Z,100050.63
2023-05-10T06:39:06.569Z,100061.06
2023-05-10T06:41:33.050Z,100055.69
2023-05-10T06:43:59.454Z,100064.38
2023-05-10T06:46:25.916Z,100065.78
2023-05-10T06:48:52.350Z,100069.56
2023-05-10T06:51:19.095Z,100062.47
2023-05-10T06:53:45.596Z,100059.16
2023-05-10T06:56:12.011Z,100066.81
2023-05-10T06:58:39.083Z,100069.47
2023-05-10T07:01:06.473Z,100068.84
2023-05-10T07:03:33.157Z,100062.38
2023-05-10T07:06:13.279Z,100074.44
2023-05-10T07:08:45.052Z,100072.03
2023-05-10T07:11:11.647Z,100073.16
2023-05-10T07:13:39.995Z,100074.75
2023-05-10T07:16:07.351Z,100087.25
2023-05-10T07:18:34.269Z,100090.50
2023-05-10T07:21:00.728Z,100086.94
2023-05-10T07:23:27.139Z,100088.16
2023-05-10T07:25:54.314Z,100094.06
2023-05-10T07:28:21.181Z,100088.16
2023-05-10T07:30:47.980Z,100094.78
2023-05-10T07:33:15.430Z,100095.72
2023-05-10T07:35:42.319Z,100095.72
2023-05-10T07:38:08.838Z,100103.19
2023-05-10T07:40:35.292Z,100099.44
2023-05-10T07:43:02.738Z,100105.53
2023-05-10T07:45:29.664Z,100100.78
2023-05-10T07:47:56.207Z,100104.22
2023-05-10T07:50:22.768Z,100107.84
2023-05-10T07:52:49.289Z,100102.78
2023-05-10T07:55:16.042Z,100106.38
2023-05-10T07:57:43.193Z,100108.59
2023-05-10T08:00:10.439Z,100103.97
2023-05-10T08:02:37.376Z,100108.41
2023-05-10T08:05:04.193Z,100114.50
2023-05-10T08:07:30.614Z,100121.34
2023-05-10T08:09:57.092Z,100125.63
2023-05-10T08:12:23.672Z,100123.13
2023-05-10T08:14:50.089Z,100128.66
2023-05-10T08:17:17.686Z,100129.53
2023-05-10T08:19:45.104Z,100133.97
2023-05-10T08:22:11.636Z,100133.72
2023-05-10T08:24:39.359Z,100132.44
2023-05-10T08:27:06.631Z,100130.25
2023-05-10T08:29:46.274Z,100130.81
2023-05-10T08:32:16.596Z,100134.44
2023-05-10T08:34:43.046Z,100131.22
2023-05-10T08:37:09.645Z,100143.03
2023-05-10T08:39:36.487Z,100142.50
2023-05-10T08:42:05.680Z,100142.72
2023-05-10T08:44:35.968Z,100153.16
2023-05-10T08:47:06.581Z,100155.88
2023-05-10T08:49:34.583Z,100158.63
2023-05-10T08:52:04.572Z,100160.63
2023-05-10T08:54:32.867Z,100159.16
2023-05-10T08:56:59.417Z,100159.81
2023-05-10T08:59:26.283Z,100170.03
2023-05-10T09:01:54.882Z,100171.06
2023-05-10T09:04:22.221Z,100179.47
2023-05-10T09:06:48.992Z,100177.66
2023-05-10T09:09:17.073Z,100175.47
2023-05-10T09:11:44.516Z,100178.28
2023-05-10T09:14:13.389Z,100181.13
2023-05-10T09:16:40.835Z,100179.19
2023-05-10T09:19:08.296Z,100186.13
2023-05-10T09:21:39.043Z,100190.28
2023-05-10T09:24:07.405Z,100191.59
2023-05-10T09:26:34.204Z,100196.63
2023-05-10T09:29:01.219Z,100190.59
2023-05-10T09:31:55.841Z,100184.19
2023-05-10T09:34:32.215Z,100190.44
2023-05-10T09:37:02.302Z,100202.38
2023-05-10T09:39:39.772Z,100199.19
2023-05-10T09:42:08.750Z,100207.56
2023-05-10T09:44:35.912Z,100205.03
2023-05-10T09:47:03.334Z,100211.03
2023-05-10T09:49:30.243Z,100215.28
2023-05-10T09:52:08.449Z,100213.53
2023-05-10T09:54:35.832Z,100209.63
2023-05-10T09:57:02.631Z,100213.72
2023-05-10T09:59:29.605Z,100213.88
2023-05-10T10:02:00.727Z,100208.53
2023-05-10T10:04:27.724Z,100210.97
2023-05-10T10:07:02.471Z,100217.34
2023-05-10T10:09:29.726Z,100222.78
2023-05-10T10:11:57.548Z,100228.34
2023-05-10T10:14:25.033Z,100230.88
2023-05-10T10:17:06.764Z,100228.88
2023-05-10T10:19:36.030Z,100227.66
2023-05-10T10:22:02.564Z,100222.53
2023-05-10T10:24:29.126Z,100215.78
2023-05-10T10:27:03.251Z,100213.03
2023-05-10T10:29:37.802Z,100228.00
2023-05-10T10:32:08.807Z,100224.22
2023-05-10T10:34:35.693Z,100226.88
2023-05-10T10:37:07.570Z,100226.31
2023-05-10T10:39:34.181Z,100225.75
2023-05-10T10:42:01.248Z,100230.75
2023-05-10T10:44:34.855Z,100228.59
2023-05-10T10:47:07.164Z,100228.59
2023-05-10T10:49:38.836Z,100240.59
2023-05-10T10:52:18.677Z,100241.84
2023-05-10T10:54:52.324Z,100239.81
2023-05-10T10:57:20.505Z,100242.75
2023-05-10T10:59:47.364Z,100248.25
2023-05-10T11:02:54.778Z,100240.59
2023-05-10T11:05:42.910Z,100235.66
2023-05-10T11:08:13.937Z,100241.16
2023-05-10T11:10:41.842Z,100240.59
2023-05-10T11:13:10.138Z,100244.56
2023-05-10T11:15:41.533Z,100248.59
2023-05-10T11:18:18.908Z,100240.34
2023-05-10T11:20:50.988Z,100242.53
2023-05-10T11:23:18.910Z,100241.16
2023-05-10T11:25:49.865Z,100249.16
2023-05-10T11:28:19.707Z,100251.56
2023-05-10T11:30:46.817Z,100240.25
2023-05-10T11:33:20.767Z,100250.75
2023-05-10T11:35:47.535Z,100247.22
2023-05-10T11:38:15.287Z,100255.78
2023-05-10T11:40:42.805Z,100250.06
2023-05-10T11:43:11.861Z,100250.31
2023-05-10T11:45:39.111Z,100254.19
2023-05-10T11:48:05.928Z,100263.56
2023-05-10T11:50:33.688Z,100261.03
2023-05-10T11:53:00.270Z,100260.59
2023-05-10T11:55:26.980Z,100259.00
2023-05-10T11:57:55.890Z,100254.53
2023-05-10T12:00:22.954Z,100256.25
2023-05-10T12:02:49.970Z,100252.13
2023-05-10T12:05:17.431Z,100264.03
2023-05-10T12:07:44.212Z,100265.16
2023-05-10T12:10:16.031Z,100269.84
2023-05-10T12:12:46.674Z,100283.69
2023-05-10T12:15:24.587Z,100285.06
2023-05-10T12:17:52.089Z,100292.31
2023-05-10T12:20:21.170Z,100291.84
2023-05-10T12:22:50.082Z,100297.22
2023-05-10T12:25:17.522Z,100292.53
2023-05-10T12:27:58.678Z,100289.06
2023-05-10T12:30:30.379Z,100296.75
2023-05-10T12:33:14.472Z,100301.97
2023-05-10T12:35:49.294Z,100305.75
2023-05-10T12:38:33.153Z,100301.53
2023-05-10T12:41:01.751Z,100302.56
2023-05-10T12:43:28.438Z,100307.75
2023-05-10T12:45:55.128Z,100308.91
2023-05-10T12:48:22.082Z,100312.72
2023-05-10T12:50:48.761Z,100305.75
2023-05-10T12:53:16.697Z,100313.25
2023-05-10T12:55:44.117Z,100305.66
2023-05-10T12:58:12.409Z,100306.22
2023-05-10T13:00:40.625Z,100307.25
2023-05-10T13:03:07.272Z,100309.75
2023-05-10T13:05:34.284Z,100305.66
2023-05-10T13:08:01.306Z,100312.16
2023-05-10T13:10:29.087Z,100309.28
2023-05-10T13:12:55.754Z,100314.56
2023-05-10T13:15:22.276Z,100311.34
2023-05-10T13:17:48.871Z,100305.41
2023-05-10T13:20:15.811Z,100313.44
2023-05-10T13:22:45.325Z,100305.88
2023-05-10T13:25:12.542Z,100305.66
2023-05-10T13:27:40.997Z,100305.88
2023-05-10T13:30:09.253Z,100315.50
2023-05-10T13:32:36.572Z,100309.56
2023-05-10T13:35:04.212Z,100302.31
2023-05-10T13:37:31.758Z,100303.78
2023-05-10T13:39:58.242Z,100314.81
2023-05-10T13:42:25.008Z,100305.28
2023-05-10T13:44:52.323Z,100310.41
2023-05-10T13:47:19.015Z,100315.50
2023-05-10T13:49:45.606Z,100309.31
2023-05-10T13:52:12.986Z,100309.19
2023-05-10T13:54:40.004Z,100313.72
2023-05-10T13:57:06.482Z,100306.19
2023-05-10T13:59:33.456Z,100313.03
2023-05-10T14:02:01.249Z,100314.53
2023-05-10T14:04:27.806Z,100318.13
2023-05-10T14:06:54.397Z,100322.16
2023-05-10T14:09:21.084Z,100310.06
2023-05-10T14:11:47.700Z,100307.34
2023-05-10T14:14:14.466Z,100307.78
2023-05-10T14:16:45.521Z,100307.94
2023-05-10T14:19:12.316Z,100317.47
2023-05-10T14:21:39.097Z,100314.91
2023-05-10T14:24:06.032Z,100312.84
2023-05-10T14:26:32.632Z,100307.59
2023-05-10T14:29:00.194Z,100312.97
2023-05-10T14:31:26.908Z,100303.72
2023-05-10T14:33:54.200Z,100303.25
2023-05-10T14:36:20.826Z,100304.06
2023-05-10T14:38:47.695Z,100304.72
2023-05-10T14:41:16.371Z,100299.91
2023-05-10T14:43:43.204Z,100308.84
2023-05-10T14:46:09.814Z,100295.13
2023-05-10T14:48:36.814Z,100311.34
2023-05-10T14:51:04.748Z,100309.28
2023-05-10T14:53:31.783Z,100301.66
2023-05-10T14:55:58.474Z,100303.81
2023-05-10T14:58:34.466Z,100307.59
2023-05-10T15:01:01.783Z,100302.56
2023-05-10T15:03:29.141Z,100318.78
2023-05-10T15:05:58.605Z,100311.13
2023-05-10T15:08:28.219Z,100307.34
2023-05-10T15:10:57.007Z,100308.38
2023-05-10T15:13:23.800Z,100320.03
2023-05-10T15:15:50.655Z,100319.56
2023-05-10T15:18:17.454Z,100317.81
2023-05-10T15:20:45.834Z,100317.63
2023-05-10T15:23:12.302Z,100317.28
2023-05-10T15:25:38.888Z,100322.06
2023-05-10T15:28:05.541Z,100323.53
2023-05-10T15:30:32.194Z,100325.81
2023-05-10T15:32:58.895Z,100328.69
2023-05-10T15:35:26.951Z,100319.78
2023-05-10T15:37:53.513Z,100324.06
2023-05-10T15:40:20.426Z,100320.97
2023-05-10T15:42:46.970Z,100317.22
2023-05-10T15:45:14.474Z,100324.78
2023-05-10T15:47:41.136Z,100327.19
2023-05-10T15:50:08.683Z,100325.19
2023-05-10T15:52:36.077Z,100337.56
2023-05-10T15:55:04.573Z,100334.47
2023-05-10T15:57:31.157Z,100340.84
2023-05-10T15:59:58.257Z,100337.41
2023-05-10T16:02:25.109Z,100348.34
2023-05-10T16:04:51.819Z,100349.09
2023-05-10T16:07:18.727Z,100345.41
2023-05-10T16:09:45.291Z,100346.66
2023-05-10T16:12:11.801Z,100347.59
2023-05-10T16:14:38.318Z,100339.81
2023-05-10T16:17:05.068Z,100347.47
2023-05-10T16:19:32.002Z,100347.59
2023-05-10T16:21:58.809Z,100346.16
2023-05-10T16:24:26.479Z,100345.69
2023-05-10T16:26:53.399Z,100355.19
2023-05-10T16:29:20.042Z,100349.59
2023-05-10T16:31:46.952Z,100358.28
2023-05-10T16:34:13.582Z,100350.28
2023-05-10T16:36:40.351Z,100351.75
2023-05-10T16:39:06.858Z,100356.69
2023-05-10T16:41:34.484Z,100364.03
2023-05-10T16:44:01.838Z,100359.72
2023-05-10T16:46:28.748Z,100354.84
2023-05-10T16:48:56.161Z,100361.22
2023-05-10T16:51:22.660Z,100361.03
2023-05-10T16:53:49.747Z,100362.91
2023-05-10T16:56:18.355Z,100361.28
2023-05-10T16:58:44.912Z,100361.50
2023-05-10T17:01:11.461Z,100362.84
2023-05-10T17:03:38.081Z,100365.84
2023-05-10T17:06:06.139Z,100364.38
2023-05-10T17:08:33.373Z,100367.91
2023-05-10T17:11:04.496Z,100362.03
2023-05-10T17:13:31.910Z,100369.47
2023-05-10T17:16:05.944Z,100373.06
2023-05-10T17:18:32.646Z,100367.66
2023-05-10T17:21:00.427Z,100372.66
2023-05-10T17:23:27.114Z,100361.97
2023-05-10T17:25:53.559Z,100361.94
2023-05-10T17:28:20.121Z,100365.47
2023-05-10T17:30:46.646Z,100369.13
2023-05-10T17:33:13.419Z,100370.75
2023-05-10T17:35:39.921Z,100374.63
2023-05-10T17:38:08.040Z,100383.50
2023-05-10T17:40:34.585Z,100383.97
2023-05-10T17:43:01.283Z,100381.56
2023-05-10T17:45:27.818Z,100387.84
2023-05-10T17:47:54.572Z,100384.03
2023-05-10T17:50:21.582Z,100394.13
2023-05-10T17:52:48.180Z,100396.41
2023-05-10T17:55:15.044Z,100392.19
2023-05-10T17:57:41.938Z,100389.97
2023-05-10T18:00:09.231Z,100391.28
2023-05-10T18:02:37.183Z,100388.09
2023-05-10T18:05:04.930Z,100401.13
2023-05-10T18:07:31.830Z,100396.78
2023-05-10T18:09:58.518Z,100397.47
2023-05-10T18:12:25.110Z,100397.47
2023-05-10T18:14:51.738Z,100403.63
2023-05-10T18:17:18.947Z,100399.59
2023-05-10T18:19:45.478Z,100413.50
2023-05-10T18:22:12.399Z,100410.63
2023-05-10T18:24:40.058Z,100411.22
2023-05-10T18:27:09.063Z,100404.59
2023-05-10T18:29:36.982Z,100414.53
2023-05-10T18:32:04.127Z,100416.03
2023-05-10T18:34:30.699Z,100413.22
2023-05-10T18:36:57.487Z,100412.53
2023-05-10T18:39:24.984Z,100419.94
2023-05-10T18:41:51.955Z,100416.13
2023-05-10T18:44:19.298Z,100420.09
2023-05-10T18:46:46.324Z,100413.78
2023-05-10T18:49:13.378Z,100417.50
2023-05-10T18:51:40.097Z,100418.28
2023-05-10T18:54:06.623Z,100415.06
2023-05-10T18:56:33.773Z,100418.59
2023-05-10T18:59:00.405Z,100424.06
2023-05-10T19:01:26.883Z,100426.81
2023-05-10T19:03:53.416Z,100425.22
2023-05-10T19:06:20.170Z,100428.59
2023-05-10T19:08:46.689Z,100435.53
2023-05-10T19:11:13.186Z,100437.47
2023-05-10T19:13:39.685Z,100440.84
2023-05-10T19:16:12.129Z,100439.28
2023-05-10T19:18:39.870Z,100444.59
2023-05-10T19:21:07.663Z,100447.19
2023-05-10T19:23:34.833Z,100447.50
2023-05-10T19:26:01.684Z,100449.44
2023-05-10T19:28:28.973Z,100449.44
2023-05-10T19:30:55.737Z,100440.75
2023-05-10T19:33:22.281Z,100450.88
2023-05-10T19:35:52.202Z,100453.50
2023-05-10T19:38:26.366Z,100450.44
2023-05-10T19:40:58.055Z,100455.44
2023-05-10T19:43:29.578Z,100445.47
2023-05-10T19:46:02.826Z,100454.16
2023-05-10T19:48:29.901Z,100441.59
2023-05-10T19:51:04.002Z,100440.78
2023-05-10T19:53:31.651Z,100453.19
2023-05-10T19:56:05.242Z,100446.91
2023-05-10T19:58:33.222Z,100447.22
2023-05-10T20:01:00.246Z,100446.09
2023-05-10T20:03:27.353Z,100448.84
2023-05-10T20:05:54.072Z,100446.63
2023-05-10T20:08:20.708Z,100449.19
2023-05-10T20:10:47.171Z,100444.69
2023-05-10T20:13:13.768Z,100444.03
2023-05-10T20:15:40.348Z,100449.53
2023-05-10T20:18:07.092Z,100449.69
2023-05-10T20:20:33.671Z,100448.56
2023-05-10T20:23:00.349Z,100449.69
2023-05-10T20:25:26.912Z,100454.34
2023-05-10T20:27:54.564Z,100455.47
2023-05-10T20:30:21.734Z,100450.81
2023-05-10T20:32:48.283Z,100459.81
2023-05-10T20:35:15.136Z,100462.88
2023-05-10T20:37:41.688Z,100454.69
2023-05-10T20:40:08.697Z,100457.41
2023-05-10T20:42:35.280Z,100456.00
2023-05-10T20:45:01.812Z,100460.78
2023-05-10T20:47:28.748Z,100458.41
2023-05-10T20:49:55.901Z,100462.72
2023-05-10T20:52:24.537Z,100452.78
2023-05-10T20:54:51.328Z,100448.72
2023-05-10T20:57:17.960Z,100458.25
2023-05-10T20:59:44.477Z,100459.22
2023-05-10T21:02:10.982Z,100453.91
2023-05-10T21:04:37.978Z,100452.94
2023-05-10T21:07:04.494Z,100462.41
2023-05-10T21:09:31.110Z,100463.88
2023-05-10T21:11:57.956Z,100461.16
2023-05-10T21:14:24.762Z,100466.25
2023-05-10T21:16:51.405Z,100464.34
2023-05-10T21:19:18.087Z,100462.91
2023-05-10T21:21:44.884Z,100464.19
2023-05-10T21:24:11.500Z,100460.03
2023-05-10T21:26:38.365Z,100462.88
2023-05-10T21:29:05.193Z,100471.09
2023-05-10T21:31:31.922Z,100473.19
2023-05-10T21:33:58.549Z,100470.28
2023-05-10T21:36:25.879Z,100467.06
2023-05-10T21:38:52.724Z,100474.47
2023-05-10T21:41:19.276Z,100476.88
2023-05-10T21:43:45.805Z,100470.81
2023-05-10T21:46:13.429Z,100474.78
2023-05-10T21:48:40.116Z,100465.31
2023-05-10T21:51:07.860Z,100460.66
2023-05-10T21:53:37.330Z,100469.00
2023-05-10T21:56:03.878Z,100473.34
2023-05-10T21:58:30.409Z,100475.00
2023-05-10T22:00:57.603Z,100479.34
2023-05-10T22:03:24.741Z,100479.34
2023-05-10T22:05:51.384Z,100476.91
2023-05-10T22:08:17.925Z,100478.53
2023-05-10T22:10:45.877Z,100477.03
2023-05-10T22:13:12.367Z,100479.31
2023-05-10T22:15:39.404Z,100478.53
2023-05-10T22:18:06.082Z,100478.66
2023-05-10T22:20:32.714Z,100482.19
2023-05-10T22:22:59.579Z,100475.59
2023-05-10T22:25:26.313Z,100484.13
2023-05-10T22:27:52.920Z,100475.28
2023-05-10T22:30:20.171Z,100486.06
2023-05-10T22:32:47.276Z,100484.00
2023-05-10T22:35:13.908Z,100481.06
2023-05-10T22:37:40.385Z,100484.63
2023-05-10T22:40:07.680Z,100483.19
2023-05-10T22:42:34.310Z,100485.13
2023-05-10T22:45:00.811Z,100490.91
2023-05-10T22:47:27.331Z,100490.44
2023-05-10T22:49:55.278Z,100490.28
2023-05-10T22:52:21.857Z,100492.88
2023-05-10T22:54:48.349Z,100489.00
2023-05-10T22:57:15.137Z,100488.19
2023-05-10T22:59:42.425Z,100490.59
2023-05-10T23:02:09.949Z,100498.00
2023-05-10T23:04:37.095Z,100493.53
2023-05-10T23:07:03.721Z,100491.88
2023-05-10T23:09:30.307Z,100500.75
2023-05-10T23:11:57.428Z,100488.84
2023-05-10T23:14:24.144Z,100504.59
2023-05-10T23:16:50.902Z,100497.69
2023-05-10T23:19:17.470Z,100494.94
2023-05-10T23:21:44.013Z,100497.69
2023-05-10T23:24:11.713Z,100498.50
2023-05-10T23:26:38.363Z,100495.25
2023-05-10T23:29:05.081Z,100493.66
2023-05-10T23:31:31.660Z,100498.00
2023-05-10T23:33:58.463Z,100497.69
2023-05-10T23:36:24.998Z,100496.75
2023-05-10T23:38:51.752Z,100501.88
2023-05-10T23:41:19.327Z,100499.16
2023-05-10T23:43:45.790Z,100496.91
2023-05-10T23:46:12.363Z,100494.16
2023-05-10T23:48:38.943Z,100497.69
2023-05-10T23:51:05.491Z,100498.19
2023-05-10T23:53:32.527Z,100498.50
2023-05-10T23:55:59.120Z,100498.81
2023-05-10T23:58:25.914Z,100489.81
